createdAt,value
2023-01-19T00:00:35.172Z,7.40
2023-01-19T00:03:04.693Z,7.50
2023-01-19T00:05:33.767Z,7.40
2023-01-19T00:08:14.475Z,7.40
2023-01-19T00:10:43.379Z,7.30
2023-01-19T00:13:10.206Z,7.30
2023-01-19T00:15:37.313Z,9.20
2023-01-19T00:18:04.133Z,7.30
2023-01-19T00:20:32.648Z,7.40
2023-01-19T00:22:59.675Z,7.30
2023-01-19T00:25:26.634Z,7.40
2023-01-19T00:27:53.383Z,7.40
2023-01-19T00:30:20.205Z,7.30
2023-01-19T00:32:46.956Z,7.10
2023-01-19T00:35:13.839Z,7.00
2023-01-19T00:37:40.632Z,7.10
2023-01-19T00:40:08.769Z,7.00
2023-01-19T00:42:41.419Z,6.90
2023-01-19T00:45:10.200Z,6.90
2023-01-19T00:47:37.149Z,6.80
2023-01-19T00:50:04.172Z,6.80
2023-01-19T00:52:31.210Z,6.80
2023-01-19T00:54:57.928Z,6.80
2023-01-19T00:57:24.676Z,6.70
2023-01-19T00:59:51.414Z,6.70
2023-01-19T01:02:18.375Z,6.70
2023-01-19T01:04:45.355Z,7.30
2023-01-19T01:07:12.281Z,7.60
2023-01-19T01:09:39.054Z,7.00
2023-01-19T01:12:06.204Z,7.10
2023-01-19T01:14:34.284Z,7.20
2023-01-19T01:17:01.175Z,7.30
2023-01-19T01:19:27.943Z,7.20
2023-01-19T01:21:55.478Z,7.20
2023-01-19T01:24:22.864Z,7.30
2023-01-19T01:26:49.600Z,7.30
2023-01-19T01:29:16.720Z,7.20
2023-01-19T01:31:43.536Z,7.20
2023-01-19T01:34:10.254Z,7.00
2023-01-19T01:36:37.151Z,7.00
2023-01-19T01:39:04.281Z,7.00
2023-01-19T01:41:32.271Z,7.00
2023-01-19T01:44:01.777Z,7.00
2023-01-19T01:46:31.185Z,7.00
2023-01-19T01:48:57.869Z,7.10
2023-01-19T01:51:30.623Z,7.20
2023-01-19T01:54:12.705Z,7.30
2023-01-19T01:56:43.747Z,7.30
2023-01-19T01:59:25.626Z,7.40
2023-01-19T02:02:12.496Z,7.50
2023-01-19T02:04:44.107Z,7.60
2023-01-19T02:07:34.722Z,7.50
2023-01-19T02:10:20.983Z,7.50
2023-01-19T02:13:06.439Z,7.60
2023-01-19T02:15:33.421Z,7.70
2023-01-19T02:18:00.182Z,7.70
2023-01-19T02:20:29.381Z,7.70
2023-01-19T02:23:00.598Z,7.70
2023-01-19T02:25:27.695Z,7.70
2023-01-19T02:27:54.840Z,7.80
2023-01-19T02:30:21.588Z,7.70
2023-01-19T02:32:49.257Z,7.80
2023-01-19T02:35:16.203Z,7.80
2023-01-19T02:37:44.289Z,7.80
2023-01-19T02:40:19.696Z,7.70
2023-01-19T02:42:50.271Z,7.70
2023-01-19T02:45:20.643Z,7.60
2023-01-19T02:47:50.058Z,7.60
2023-01-19T02:50:50.365Z,7.60
2023-01-19T02:53:43.503Z,7.50
2023-01-19T02:56:36.000Z,7.40
2023-01-19T02:59:23.252Z,7.40
2023-01-19T03:02:23.956Z,7.30
2023-01-19T03:05:00.143Z,7.30
2023-01-19T03:07:57.686Z,7.20
2023-01-19T03:10:52.783Z,7.20
2023-01-19T03:13:41.902Z,7.20
2023-01-19T03:16:22.598Z,7.20
2023-01-19T03:19:00.118Z,7.30
2023-01-19T03:21:28.698Z,7.20
2023-01-19T03:24:02.145Z,7.20
2023-01-19T03:26:31.785Z,7.40
2023-01-19T03:29:02.275Z,7.40
2023-01-19T03:31:31.843Z,7.40
2023-01-19T03:34:04.349Z,7.50
2023-01-19T03:36:49.131Z,7.50
2023-01-19T03:39:21.775Z,7.50
2023-01-19T03:41:52.914Z,7.50
2023-01-19T03:44:19.733Z,7.50
2023-01-19T03:46:48.770Z,7.50
2023-01-19T03:49:15.839Z,7.40
2023-01-19T03:51:42.779Z,7.50
2023-01-19T03:54:11.145Z,7.60
2023-01-19T03:56:38.118Z,7.60
2023-01-19T03:59:05.944Z,7.50
2023-01-19T04:01:32.840Z,7.50
2023-01-19T04:03:59.605Z,7.50
2023-01-19T04:06:26.906Z,7.50
2023-01-19T04:08:53.865Z,7.60
2023-01-19T04:11:20.864Z,7.50
2023-01-19T04:13:47.800Z,7.50
2023-01-19T04:16:19.807Z,7.50
2023-01-19T04:18:47.198Z,7.40
2023-01-19T04:21:14.002Z,7.30
2023-01-19T04:23:40.736Z,7.30
2023-01-19T04:26:08.515Z,7.30
2023-01-19T04:28:37.035Z,7.20
2023-01-19T04:31:05.418Z,7.40
2023-01-19T04:33:32.390Z,7.10
2023-01-19T04:35:59.099Z,7.00
2023-01-19T04:38:26.489Z,6.90
2023-01-19T04:40:54.443Z,7.00
2023-01-19T04:43:22.543Z,7.00
2023-01-19T04:45:49.480Z,6.90
2023-01-19T04:48:18.379Z,6.80
2023-01-19T04:50:45.585Z,6.80
2023-01-19T04:53:13.619Z,6.70
2023-01-19T04:55:40.974Z,6.70
2023-01-19T04:58:08.104Z,6.70
2023-01-19T05:00:35.317Z,6.60
2023-01-19T05:03:02.779Z,6.80
2023-01-19T05:05:29.925Z,6.60
2023-01-19T05:07:56.970Z,6.70
2023-01-19T05:10:23.839Z,6.70
2023-01-19T05:12:51.283Z,6.70
2023-01-19T05:15:18.388Z,6.70
2023-01-19T05:17:45.228Z,6.70
2023-01-19T05:20:15.714Z,6.60
2023-01-19T05:22:43.454Z,6.60
2023-01-19T05:25:10.317Z,6.60
2023-01-19T05:27:38.660Z,6.60
2023-01-19T05:30:06.539Z,6.60
2023-01-19T05:32:33.567Z,6.60
2023-01-19T05:35:00.441Z,6.60
2023-01-19T05:37:27.393Z,6.70
2023-01-19T05:39:54.816Z,6.60
2023-01-19T05:42:21.631Z,6.70
2023-01-19T05:44:48.519Z,6.80
2023-01-19T05:47:15.292Z,6.80
2023-01-19T05:49:42.081Z,6.80
2023-01-19T05:52:08.971Z,6.90
2023-01-19T05:54:35.676Z,6.90
2023-01-19T05:57:03.045Z,6.90
2023-01-19T05:59:29.724Z,6.90
2023-01-19T06:01:57.128Z,7.10
2023-01-19T06:04:24.073Z,7.10
2023-01-19T06:06:51.187Z,7.10
2023-01-19T06:09:18.251Z,7.20
2023-01-19T06:11:46.134Z,7.40
2023-01-19T06:14:13.289Z,7.30
2023-01-19T06:16:40.132Z,7.20
2023-01-19T06:19:07.682Z,7.20
2023-01-19T06:21:34.444Z,7.20
2023-01-19T06:24:01.292Z,7.10
2023-01-19T06:26:28.046Z,7.10
2023-01-19T06:28:55.545Z,7.10
2023-01-19T06:31:22.333Z,7.10
2023-01-19T06:33:50.019Z,7.10
2023-01-19T06:36:16.716Z,7.10
2023-01-19T06:38:43.807Z,7.10
2023-01-19T06:41:10.632Z,7.10
2023-01-19T06:43:37.341Z,7.20
2023-01-19T06:46:04.825Z,7.30
2023-01-19T06:48:31.669Z,7.30
2023-01-19T06:50:59.751Z,7.40
2023-01-19T06:53:28.273Z,7.40
2023-01-19T06:56:03.138Z,7.50
2023-01-19T06:58:31.635Z,7.60
2023-01-19T07:01:05.843Z,7.80
2023-01-19T07:03:34.036Z,7.80
2023-01-19T07:06:06.494Z,7.80
2023-01-19T07:08:35.001Z,7.90
2023-01-19T07:11:25.850Z,8.00
2023-01-19T07:13:55.336Z,8.00
2023-01-19T07:16:23.628Z,8.00
2023-01-19T07:18:50.843Z,8.00
2023-01-19T07:21:18.401Z,7.90
2023-01-19T07:23:48.680Z,7.90
2023-01-19T07:26:18.423Z,7.80
2023-01-19T07:28:46.820Z,7.70
2023-01-19T07:31:15.651Z,7.70
2023-01-19T07:33:42.605Z,7.60
2023-01-19T07:36:09.842Z,7.60
2023-01-19T07:38:36.700Z,7.60
2023-01-19T07:41:07.857Z,7.60
2023-01-19T07:43:35.189Z,7.70
2023-01-19T07:46:06.168Z,7.70
2023-01-19T07:48:32.986Z,7.70
2023-01-19T07:51:13.013Z,7.70
2023-01-19T07:53:41.721Z,7.80
2023-01-19T07:56:08.651Z,7.80
2023-01-19T07:58:35.369Z,8.00
2023-01-19T08:01:10.024Z,7.70
2023-01-19T08:03:37.157Z,7.70
2023-01-19T08:06:05.160Z,7.70
2023-01-19T08:08:32.929Z,7.70
2023-01-19T08:10:59.986Z,7.60
2023-01-19T08:13:26.985Z,7.50
2023-01-19T08:15:54.474Z,7.40
2023-01-19T08:18:22.098Z,7.30
2023-01-19T08:20:48.851Z,7.20
2023-01-19T08:23:15.699Z,7.20
2023-01-19T08:25:52.998Z,7.10
2023-01-19T08:28:20.055Z,7.10
2023-01-19T08:30:53.920Z,7.10
2023-01-19T08:33:23.168Z,7.10
2023-01-19T08:35:52.801Z,7.10
2023-01-19T08:38:20.093Z,7.00
2023-01-19T08:40:46.917Z,7.00
2023-01-19T08:43:16.059Z,7.10
2023-01-19T08:45:49.129Z,7.20
2023-01-19T08:48:18.452Z,7.30
2023-01-19T08:50:49.487Z,7.40
2023-01-19T08:53:17.153Z,7.50
2023-01-19T08:55:43.895Z,7.60
2023-01-19T08:58:10.627Z,7.80
2023-01-19T09:00:39.332Z,7.80
2023-01-19T09:03:08.294Z,7.80
2023-01-19T09:05:38.776Z,7.90
2023-01-19T09:08:09.180Z,7.80
2023-01-19T09:10:37.800Z,7.80
2023-01-19T09:13:08.131Z,7.80
2023-01-19T09:15:37.435Z,7.60
2023-01-19T09:18:07.586Z,7.50
2023-01-19T09:20:36.103Z,7.60
2023-01-19T09:23:02.901Z,7.60
2023-01-19T09:25:29.751Z,7.60
2023-01-19T09:27:56.581Z,7.70
2023-01-19T09:30:23.333Z,7.70
2023-01-19T09:32:50.086Z,7.70
2023-01-19T09:35:16.997Z,7.60
2023-01-19T09:37:47.447Z,7.70
2023-01-19T09:40:17.573Z,7.60
2023-01-19T09:42:50.266Z,7.70
2023-01-19T09:45:26.155Z,7.80
2023-01-19T09:47:54.453Z,7.70
2023-01-19T09:50:28.621Z,7.70
2023-01-19T09:53:01.559Z,7.70
2023-01-19T09:55:29.357Z,7.70
2023-01-19T09:57:56.142Z,7.80
2023-01-19T10:00:24.272Z,7.90
2023-01-19T10:03:05.026Z,7.90
2023-01-19T10:05:44.699Z,8.00
2023-01-19T10:08:26.379Z,8.10
2023-01-19T10:10:55.112Z,8.10
2023-01-19T10:13:32.978Z,8.20
2023-01-19T10:16:21.419Z,8.20
2023-01-19T10:18:51.594Z,8.30
2023-01-19T10:21:23.031Z,8.30
2023-01-19T10:23:55.883Z,8.40
2023-01-19T10:26:45.799Z,8.50
2023-01-19T10:29:22.288Z,8.50
2023-01-19T10:31:51.559Z,8.60
2023-01-19T10:34:22.996Z,8.60
2023-01-19T10:36:58.936Z,8.50
2023-01-19T10:39:25.752Z,8.60
2023-01-19T10:41:53.536Z,8.60
2023-01-19T10:44:28.984Z,8.70
2023-01-19T10:46:58.968Z,8.70
2023-01-19T10:49:31.546Z,8.80
2023-01-19T10:51:59.826Z,8.80
2023-01-19T10:54:29.965Z,8.70
2023-01-19T10:57:04.082Z,8.80
2023-01-19T10:59:47.518Z,8.90
2023-01-19T11:02:31.754Z,8.90
2023-01-19T11:05:25.622Z,8.90
2023-01-19T11:07:52.381Z,9.00
2023-01-19T11:10:27.220Z,9.00
2023-01-19T11:13:12.650Z,9.10
2023-01-19T11:15:57.400Z,9.10
2023-01-19T11:18:31.702Z,9.10
2023-01-19T11:21:10.815Z,9.20
2023-01-19T11:23:44.365Z,9.20
2023-01-19T11:26:16.718Z,9.20
2023-01-19T11:28:48.516Z,9.30
2023-01-19T11:31:15.266Z,9.10
2023-01-19T11:33:51.951Z,9.10
2023-01-19T11:36:34.566Z,9.10
2023-01-19T11:39:21.305Z,9.10
2023-01-19T11:41:51.824Z,9.00
2023-01-19T11:44:23.583Z,9.00
2023-01-19T11:46:56.099Z,9.00
2023-01-19T11:49:41.630Z,9.00
2023-01-19T11:52:24.000Z,9.20
2023-01-19T11:55:19.871Z,9.20
2023-01-19T11:57:49.526Z,9.20
2023-01-19T12:00:28.633Z,9.20
2023-01-19T12:03:00.969Z,9.30
2023-01-19T12:05:33.655Z,9.40
2023-01-19T12:08:06.625Z,9.40
2023-01-19T12:10:38.300Z,9.40
2023-01-19T12:13:05.082Z,9.60
2023-01-19T12:15:42.858Z,9.60
2023-01-19T12:18:19.486Z,9.50
2023-01-19T12:20:53.789Z,9.50
2023-01-19T12:23:38.030Z,9.30
2023-01-19T12:26:32.680Z,9.30
2023-01-19T12:29:15.244Z,9.20
2023-01-19T12:31:45.466Z,9.20
2023-01-19T12:34:46.757Z,9.10
2023-01-19T12:37:34.608Z,9.00
2023-01-19T12:40:21.690Z,9.00
2023-01-19T12:43:03.812Z,8.80
2023-01-19T12:45:39.808Z,8.90
2023-01-19T12:48:23.867Z,9.00
2023-01-19T12:50:50.714Z,9.10
2023-01-19T12:53:20.686Z,9.20
2023-01-19T12:55:59.813Z,9.40
2023-01-19T12:58:27.313Z,9.60
2023-01-19T13:01:18.810Z,9.70
2023-01-19T13:04:09.010Z,9.80
2023-01-19T13:06:48.123Z,9.90
2023-01-19T13:09:32.443Z,10.00
2023-01-19T13:12:14.418Z,10.20
2023-01-19T13:14:43.153Z,10.20
2023-01-19T13:17:44.109Z,10.10
2023-01-19T13:20:27.127Z,10.10
2023-01-19T13:23:16.092Z,9.90
2023-01-19T13:26:11.753Z,10.10
2023-01-19T13:28:43.057Z,10.20
2023-01-19T13:31:11.023Z,10.30
2023-01-19T13:33:45.355Z,10.30
2023-01-19T13:36:41.255Z,10.50
2023-01-19T13:39:24.560Z,10.30
2023-01-19T13:41:54.686Z,10.20
2023-01-19T13:44:29.182Z,10.00
2023-01-19T13:46:57.513Z,10.00
2023-01-19T13:49:33.366Z,9.80
2023-01-19T13:52:21.031Z,9.80
2023-01-19T13:55:02.493Z,9.70
2023-01-19T13:57:29.677Z,9.60
2023-01-19T14:00:16.765Z,9.40
2023-01-19T14:02:58.669Z,9.40
2023-01-19T14:05:29.949Z,9.10
2023-01-19T14:08:11.011Z,9.10
2023-01-19T14:10:53.867Z,9.00
2023-01-19T14:13:29.943Z,8.90
2023-01-19T14:15:59.613Z,8.80
2023-01-19T14:18:31.236Z,8.80
2023-01-19T14:21:09.861Z,8.60
2023-01-19T14:23:54.391Z,8.80
2023-01-19T14:26:45.984Z,8.80
2023-01-19T14:29:21.278Z,8.80
2023-01-19T14:32:04.094Z,8.70
2023-01-19T14:34:39.674Z,8.70
2023-01-19T14:37:28.463Z,8.80
2023-01-19T14:40:01.387Z,9.00
2023-01-19T14:42:31.749Z,9.10
2023-01-19T14:45:01.481Z,11.50
2023-01-19T14:47:42.918Z,9.50
2023-01-19T14:50:32.865Z,9.70
2023-01-19T14:53:08.063Z,9.90
2023-01-19T14:55:51.443Z,9.90
2023-01-19T14:58:20.239Z,9.80
2023-01-19T15:00:48.340Z,9.70
2023-01-19T15:03:16.044Z,9.50
2023-01-19T15:05:47.540Z,9.50
2023-01-19T15:08:29.964Z,9.40
2023-01-19T15:10:58.270Z,9.40
2023-01-19T15:13:26.903Z,9.30
2023-01-19T15:15:53.825Z,9.10
2023-01-19T15:18:25.202Z,9.00
2023-01-19T15:20:55.375Z,8.90
2023-01-19T15:23:22.080Z,8.90
2023-01-19T15:25:50.277Z,8.80
2023-01-19T15:28:20.542Z,8.80
2023-01-19T15:30:47.469Z,8.80
2023-01-19T15:33:22.070Z,8.90
2023-01-19T15:35:49.111Z,8.80
2023-01-19T15:38:16.090Z,8.80
2023-01-19T15:40:42.823Z,8.80
2023-01-19T15:43:12.477Z,8.70
2023-01-19T15:46:00.193Z,8.60
2023-01-19T15:48:27.026Z,8.60
2023-01-19T15:50:53.800Z,8.50
2023-01-19T15:53:21.617Z,8.50
2023-01-19T15:55:51.097Z,8.30
2023-01-19T15:58:20.525Z,8.20
2023-01-19T16:00:57.924Z,8.20
2023-01-19T16:03:26.075Z,8.10
2023-01-19T16:05:52.846Z,8.10
2023-01-19T16:08:21.934Z,8.00
2023-01-19T16:10:48.655Z,7.90
2023-01-19T16:13:15.390Z,7.80
2023-01-19T16:15:45.092Z,7.80
2023-01-19T16:18:11.849Z,7.70
2023-01-19T16:20:38.627Z,7.60
2023-01-19T16:23:20.615Z,7.50
2023-01-19T16:25:57.598Z,7.30
2023-01-19T16:28:24.921Z,7.30
2023-01-19T16:30:51.827Z,7.10
2023-01-19T16:33:18.901Z,7.00
2023-01-19T16:35:45.679Z,7.00
2023-01-19T16:38:12.466Z,6.90
2023-01-19T16:40:39.214Z,6.80
2023-01-19T16:43:05.973Z,6.70
2023-01-19T16:45:32.785Z,6.60
2023-01-19T16:47:59.504Z,6.60
2023-01-19T16:50:26.331Z,6.50
2023-01-19T16:52:57.473Z,6.40
2023-01-19T16:55:24.241Z,6.40
2023-01-19T16:57:52.428Z,6.30
2023-01-19T17:00:19.674Z,6.30
2023-01-19T17:02:46.481Z,6.20
2023-01-19T17:05:14.499Z,6.20
2023-01-19T17:07:41.251Z,6.20
2023-01-19T17:10:08.838Z,6.20
2023-01-19T17:12:35.794Z,6.10
2023-01-19T17:15:02.491Z,6.20
2023-01-19T17:17:29.170Z,6.10
2023-01-19T17:19:55.860Z,6.10
2023-01-19T17:22:22.582Z,6.10
2023-01-19T17:24:49.836Z,6.10
2023-01-19T17:27:17.251Z,6.00
2023-01-19T17:29:44.062Z,6.00
2023-01-19T17:32:10.794Z,6.00
2023-01-19T17:34:37.631Z,6.00
2023-01-19T17:37:04.438Z,6.00
2023-01-19T17:39:31.419Z,6.00
2023-01-19T17:41:58.349Z,6.90
2023-01-19T17:44:25.149Z,5.90
2023-01-19T17:46:51.904Z,6.00
2023-01-19T17:49:18.661Z,6.10
2023-01-19T17:51:46.550Z,6.00
2023-01-19T17:54:14.405Z,6.00
2023-01-19T17:56:41.597Z,5.90
2023-01-19T17:59:08.525Z,5.80
2023-01-19T18:01:39.571Z,5.70
2023-01-19T18:04:08.164Z,5.70
2023-01-19T18:06:35.027Z,5.70
2023-01-19T18:09:01.977Z,5.60
2023-01-19T18:11:29.284Z,5.60
2023-01-19T18:13:56.117Z,5.60
2023-01-19T18:16:27.965Z,5.50
2023-01-19T18:18:56.590Z,5.50
2023-01-19T18:21:24.818Z,5.60
2023-01-19T18:23:51.919Z,5.50
2023-01-19T18:26:21.621Z,5.50
2023-01-19T18:28:49.421Z,5.50
2023-01-19T18:31:18.385Z,5.60
2023-01-19T18:33:45.306Z,5.60
2023-01-19T18:36:12.026Z,5.60
2023-01-19T18:38:39.428Z,5.80
2023-01-19T18:41:07.958Z,5.90
2023-01-19T18:43:34.783Z,6.00
2023-01-19T18:46:01.608Z,6.10
2023-01-19T18:48:28.784Z,6.20
2023-01-19T18:50:55.862Z,6.20
2023-01-19T18:53:23.604Z,6.20
2023-01-19T18:55:55.984Z,6.30
2023-01-19T18:58:23.132Z,6.30
2023-01-19T19:00:50.848Z,6.20
2023-01-19T19:03:18.016Z,6.20
2023-01-19T19:05:44.923Z,6.00
2023-01-19T19:08:11.910Z,6.00
2023-01-19T19:10:40.827Z,6.00
2023-01-19T19:13:08.141Z,6.00
2023-01-19T19:15:34.952Z,5.90
2023-01-19T19:18:01.733Z,6.00
2023-01-19T19:20:28.579Z,6.10
2023-01-19T19:22:56.077Z,6.20
2023-01-19T19:25:22.821Z,6.30
2023-01-19T19:27:53.124Z,6.50
2023-01-19T19:30:20.836Z,6.60
2023-01-19T19:32:56.763Z,6.60
2023-01-19T19:35:24.113Z,6.60
2023-01-19T19:37:51.562Z,6.70
2023-01-19T19:40:18.511Z,6.70
2023-01-19T19:42:45.250Z,6.70
2023-01-19T19:45:12.386Z,6.80
2023-01-19T19:47:39.144Z,6.80
2023-01-19T19:50:06.229Z,7.00
2023-01-19T19:52:38.575Z,6.70
2023-01-19T19:55:07.220Z,6.70
2023-01-19T19:57:34.102Z,6.70
2023-01-19T20:00:00.921Z,6.60
2023-01-19T20:02:27.854Z,6.60
2023-01-19T20:04:54.573Z,6.60
2023-01-19T20:07:21.326Z,6.60
2023-01-19T20:09:48.021Z,6.50
2023-01-19T20:12:14.718Z,6.40
2023-01-19T20:14:41.446Z,6.40
2023-01-19T20:17:08.137Z,6.50
2023-01-19T20:19:34.836Z,6.50
2023-01-19T20:22:01.489Z,6.50
2023-01-19T20:24:28.263Z,6.50
2023-01-19T20:26:56.572Z,6.50
2023-01-19T20:29:23.661Z,6.50
2023-01-19T20:31:54.128Z,6.50
2023-01-19T20:34:24.923Z,6.40
2023-01-19T20:36:53.780Z,6.50
2023-01-19T20:39:22.205Z,6.50
2023-01-19T20:41:51.167Z,6.40
2023-01-19T20:44:23.667Z,6.30
2023-01-19T20:46:51.214Z,6.30
2023-01-19T20:49:18.323Z,6.20
2023-01-19T20:51:46.775Z,6.10
2023-01-19T20:54:15.784Z,6.10
2023-01-19T20:56:43.021Z,6.10
2023-01-19T20:59:10.573Z,6.10
2023-01-19T21:01:38.245Z,6.20
2023-01-19T21:04:05.214Z,6.20
2023-01-19T21:06:31.945Z,6.30
2023-01-19T21:08:58.636Z,6.50
2023-01-19T21:11:26.027Z,6.60
2023-01-19T21:13:55.697Z,6.70
2023-01-19T21:16:28.986Z,6.80
2023-01-19T21:18:55.809Z,6.80
2023-01-19T21:21:30.928Z,6.80
2023-01-19T21:23:59.637Z,6.70
2023-01-19T21:26:26.804Z,6.70
2023-01-19T21:28:53.585Z,6.50
2023-01-19T21:31:22.558Z,6.50
2023-01-19T21:33:53.271Z,6.50
2023-01-19T21:36:22.374Z,6.60
2023-01-19T21:38:51.358Z,6.60
2023-01-19T21:41:18.587Z,6.70
2023-01-19T21:43:46.150Z,6.60
2023-01-19T21:46:21.386Z,6.60
2023-01-19T21:48:48.435Z,6.40
2023-01-19T21:51:15.603Z,6.30
2023-01-19T21:53:42.412Z,6.10
2023-01-19T21:56:10.554Z,6.10
2023-01-19T21:58:37.694Z,6.10
2023-01-19T22:01:07.237Z,6.00
2023-01-19T22:03:34.157Z,5.90
2023-01-19T22:06:05.746Z,6.00
2023-01-19T22:08:33.091Z,6.10
2023-01-19T22:11:20.693Z,6.20
2023-01-19T22:13:47.960Z,6.30
2023-01-19T22:16:17.275Z,6.30
2023-01-19T22:18:46.671Z,6.40
2023-01-19T22:21:31.395Z,6.30
2023-01-19T22:23:59.790Z,6.40
2023-01-19T22:26:31.130Z,6.50
2023-01-19T22:29:00.786Z,6.60
2023-01-19T22:31:28.747Z,6.60
2023-01-19T22:33:56.558Z,6.80
2023-01-19T22:36:25.585Z,6.60
2023-01-19T22:38:57.610Z,6.70
2023-01-19T22:41:27.734Z,6.70
2023-01-19T22:43:56.791Z,6.80
2023-01-19T22:46:25.616Z,6.80
2023-01-19T22:48:53.252Z,6.80
2023-01-19T22:51:22.309Z,6.80
2023-01-19T22:53:49.865Z,6.80
2023-01-19T22:56:25.169Z,6.80
2023-01-19T22:58:52.685Z,6.70
2023-01-19T23:01:28.461Z,6.70
2023-01-19T23:03:55.810Z,6.60
2023-01-19T23:06:25.125Z,6.60
2023-01-19T23:08:53.883Z,6.60
2023-01-19T23:11:25.833Z,6.70
2023-01-19T23:13:52.781Z,6.70
2023-01-19T23:16:20.118Z,6.70
2023-01-19T23:18:47.292Z,6.70
2023-01-19T23:21:17.074Z,6.70
2023-01-19T23:23:44.561Z,6.60
2023-01-19T23:26:12.615Z,6.50
2023-01-19T23:28:40.169Z,6.50
2023-01-19T23:31:18.100Z,6.40
2023-01-19T23:33:45.048Z,6.30
2023-01-19T23:36:13.789Z,6.20
2023-01-19T23:38:41.690Z,6.20
2023-01-19T23:41:08.985Z,6.00
2023-01-19T23:43:35.772Z,6.10
2023-01-19T23:46:08.012Z,6.00
2023-01-19T23:48:35.541Z,6.00
2023-01-19T23:51:13.769Z,5.90
2023-01-19T23:53:40.735Z,5.90
2023-01-19T23:56:17.455Z,5.90
2023-01-19T23:58:51.630Z,5.90
